Friday, November 17, 2017, 7:32 PM GMT
Back to Local

CYBN, Borden, Ont.

Location: , , Canada Lat: 44.25
Local Time: 7:32 PM GMT (19:32 GMT) Lon: -79.917
Time Zone: GMT Elev: 731 ft

Show me the last for .
Show Decoded

2017-11-17 19:00 METAR CYBN 171900Z AUTO 15005KT 9SM CLR 01/M04 A3014 RMK SLP216 =
2017-11-17 18:00 METAR CYBN 171800Z AUTO 14005KT 120V190 9SM FEW023 00/M05 A3016 RMK SLP225 =
2017-11-17 17:35 METAR CYBN 171735Z AUTO 16006KT 130V240 9SM SCT023 01/M04 A3019 =
2017-11-17 17:00 METAR CYBN 171700Z AUTO 07003KT 9SM BKN019 M00/M05 A3019 RMK SLP236 =
2017-11-17 16:00 METAR CYBN 171600Z AUTO 23002KT 9SM BKN019 M01/M06 A3023 RMK SLP248 =
2017-11-17 15:00 METAR CYBN 171500Z AUTO 27002KT 9SM OVC019 M02/M06 A3025 RMK SLP256 =
2017-11-17 14:00 METAR CYBN 171400Z AUTO 09003KT 9SM OVC019 M03/M06 A3025 RMK SLP256 =
2017-11-17 13:00 METAR CYBN 171300Z AUTO 04003KT 020V080 9SM OVC021 M03/M07 A3027 RMK SLP261 =
2017-11-17 12:00 METAR CYBN 171200Z AUTO 03003KT 350V050 9SM OVC021 M03/M06 A3025 RMK SLP256 =
2017-11-17 11:00 METAR CYBN 171100Z AUTO 04004KT 9SM OVC021 M03/M06 A3023 RMK SLP247 =
2017-11-17 10:00 METAR CYBN 171000Z AUTO 01003KT 9SM OVC023 M03/M06 A3021 RMK SLP243 =
2017-11-17 09:00 METAR CYBN 170900Z AUTO 02004KT 340V050 9SM OVC019 M03/M06 A3021 RMK SLP240 =
2017-11-17 08:00 METAR CYBN 170800Z AUTO 01003KT 340V040 9SM OVC021 M03/M06 A3022 RMK SLP243 =
2017-11-17 07:00 METAR CYBN 170700Z AUTO 34007KT 310V030 9SM OVC021 M02/M05 A3020 RMK SLP236 =
2017-11-17 06:00 METAR CYBN 170600Z AUTO 33005KT 300V010 9SM OVC019 M02/M05 A3016 RMK SLP224 =
2017-11-17 05:00 METAR CYBN 170500Z AUTO 34006KT 310V010 9SM OVC019 M01/M04 A3015 RMK SLP218 =
2017-11-17 04:16 METAR CYBN 170416Z AUTO 34011KT 9SM OVC015 M01/M04 A3013 =
2017-11-17 04:00 METAR CYBN 170400Z AUTO 35008KT 300V020 9SM -SN OVC015 M01/M03 A3013 RMK SLP214
                 =
2017-11-17 03:51 METAR CYBN 170351Z AUTO 34008G15KT 300V360 9SM -SN OVC017 M01/M04 A3013 =
2017-11-17 03:00 METAR CYBN 170300Z AUTO 34009G18KT 310V030 9SM OVC020 M01/M04 A3012 RMK SLP208 =
2017-11-17 02:44 METAR CYBN 170244Z AUTO 34016G24KT 300V360 9SM OVC018 M01/M03 A3011 =
2017-11-17 02:00 METAR CYBN 170200Z AUTO 32013G20KT 300V360 9SM -SN OVC018 M00/M03 A3010 RMK
                 SLP201 =
2017-11-17 01:36 METAR CYBN 170136Z AUTO 34010G16KT 300V360 5SM -SN OVC018 M00/M02 A3009 =
2017-11-17 01:35 METAR CYBN 170135Z AUTO 34010G15KT 300V360 5SM -SN OVC010 OVC070 M00/M02 A3009 =
2017-11-17 01:18 METAR CYBN 170118Z AUTO 33007G17KT 300V010 3SM -SN VV007 M00/M02 A3008 =
2017-11-17 01:01 METAR CYBN 170101Z AUTO 32011G19KT 290V010 1 1/4SM -SN VV008 M00/M02 A3007 =
2017-11-17 01:00 METAR CYBN 170100Z AUTO 33013G19KT 300V010 1 1/2SM -SN VV008 M00/M02 A3007 RMK
                 VSBY VRBL 0.9V3.0 PCPN 0.5MM PAST HR SLP193 =
2017-11-17 00:57 METAR CYBN 170057Z AUTO 34011G20KT 300V010 2 1/4SM -SN VV008 M00/M02 A3007 RMK
                 VSBY VRBL 1.0V9.+ =
2017-11-17 00:55 METAR CYBN 170055Z AUTO 33011G20KT 300V360 4SM -SN VV010 M00/M02 A3007 =
2017-11-17 00:50 METAR CYBN 170050Z AUTO 33012G20KT 300V360 9SM -SN OVC017 OVC070 M00/M02 A3007 =
2017-11-17 00:44 METAR CYBN 170044Z AUTO 33010G18KT 9SM -SN VV009 M00/M02 A3006 =
2017-11-17 00:24 METAR CYBN 170024Z AUTO 32013KT 290V360 1 3/4SM -SN VV009 M00/M01 A3005 =
2017-11-17 00:17 METAR CYBN 170017Z AUTO 33011G19KT 2 1/4SM -SN OVC012 M00/M01 A3005 RMK VSBY
                 VRBL 1.7V3.5 ICG PAST HR =
2017-11-17 00:12 METAR CYBN 170012Z AUTO 33010G19KT 4SM -SN OVC012 M00/M02 A3005 RMK ICG PAST HR
                 =
2017-11-17 00:06 METAR CYBN 170006Z AUTO 32010G15KT 9SM -SN OVC009 00/M01 A3004 RMK ICG PAST HR =
2017-11-17 00:00 METAR CYBN 170000Z AUTO 33010G18KT 5SM -UP OVC009 00/M01 A3004 RMK ICG PAST HR
                 SLP183 =
2017-11-16 23:59 METAR CYBN 162359Z AUTO 34008G18KT 300V360 3SM -UP OVC009 M00/M01 A3004 RMK ICG
                 PAST HR =
2017-11-16 23:51 METAR CYBN 162351Z AUTO 33009G16KT 280V360 1 1/4SM -UP OVC009 00/M01 A3004 RMK
                 ICG PAST HR =
2017-11-16 23:47 METAR CYBN 162347Z AUTO 33009G16KT 280V360 2 1/2SM -UP OVC009 00/M01 A3004 RMK
                 VSBY VRBL 1.1V9.+ ICG PAST HR =
2017-11-16 23:45 METAR CYBN 162345Z AUTO 32008G16KT 280V360 3SM -UP OVC012 OVC044 00/M01 A3004
                 RMK ICG PAST HR =
2017-11-16 23:29 METAR CYBN 162329Z AUTO 33010G26KT 280V350 3SM -UP VV015 00/M01 A3003 RMK ICG
                 PAST HR =
2017-11-16 23:23 METAR CYBN 162323Z AUTO 31015G26KT 280V350 6SM -UP VV009 00/M01 A3002 RMK ICG
                 PAST HR =
2017-11-16 23:07 METAR CYBN 162307Z AUTO 31014G21KT 2 1/2SM -UP VV006 00/M00 A3001 RMK VSBY VRBL
                 1.1V9.+ ICG =
2017-11-16 23:03 METAR CYBN 162303Z AUTO 31009G16KT 280V340 3SM -UP VV006 00/M00 A3001 RMK ICG =
2017-11-16 23:00 METAR CYBN 162300Z AUTO 31009G18KT 280V350 1 1/2SM -UP VV006 00/M00 A3000 RMK
                 VSBY VRBL 0.6V9.+ ICG SLP169 =
2017-11-16 22:54 METAR CYBN 162254Z AUTO 33013G18KT 280V360 3/4SM -UP VV006 00/M00 A3000 RMK ICG
                 =
2017-11-16 22:51 METAR CYBN 162251Z AUTO 33009G18KT 280V360 1 1/4SM +FZDZ VV005 00/M00 A3000 RMK
                 VSBY VRBL 0.5V9.+ ICG =
2017-11-16 22:49 METAR CYBN 162249Z AUTO 31012G18KT 280V340 2SM +FZDZ VV005 00/M00 A3000 RMK VSBY
                 VRBL 0.5V9.+ ICG =
2017-11-16 22:39 METAR CYBN 162239Z AUTO 31009G18KT 290V350 4SM FZDZ VV005 00/M00 A2998 RMK ICG =
2017-11-16 22:29 METAR CYBN 162229Z AUTO 32013G20KT 280V350 1SM FZDZ VV005 00/M00 A2998 RMK ICG =
2017-11-16 22:11 METAR CYBN 162211Z AUTO 32011G21KT 280V350 1 1/4SM -UP VV005 00/M00 A2996 RMK
                 VSBY VRBL 0.6V9.+ =
2017-11-16 22:09 METAR CYBN 162209Z AUTO 32012G21KT 280V350 2 1/4SM -UP VV005 00/M00 A2996 RMK
                 VSBY VRBL 0.6V9.+ =
2017-11-16 22:07 METAR CYBN 162207Z AUTO 32012G21KT 280V350 5SM -UP VV009 01/M00 A2996 =
2017-11-16 22:00 METAR CYBN 162200Z AUTO 33013KT 290V350 2 1/2SM -UP VV013 01/M00 A2996 RMK VSBY
                 VRBL 1.4V9.0 PCPN 0.5MM PAST HR SLP153 =
2017-11-16 21:56 METAR CYBN 162156Z AUTO 32010G19KT 280V340 2 1/2SM -UP OVC013 01/M00 A2996 RMK
                 VSBY VRBL 1.4V9.0 =
2017-11-16 21:48 METAR CYBN 162148Z AUTO 32011G16KT 280V360 9SM -UP VV010 01/M00 A2995 =
2017-11-16 21:13 METAR CYBN 162113Z AUTO 34013G22KT 290V350 2 1/2SM -UP FEW006 OVC010 OVC031
                 OVC040 01/00 A2994 RMK VSBY VRBL 2.5V9.+ =
2017-11-16 21:00 METAR CYBN 162100Z AUTO 32007G16KT 270V340 1 3/4SM -UP OVC006 OVC035 OVC040
                 OVC056 01/00 A2993 RMK VSBY VRBL 1.4V3.5 SLP142 =
2017-11-16 20:35 METAR CYBN 162035Z AUTO 30010G20KT 270V340 9SM -UP OVC009 OVC038 OVC051 02/01
                 A2991 =
2017-11-16 20:20 METAR CYBN 162020Z AUTO 31009G16KT 290V360 9SM -UP BKN010 BKN038 OVC051 02/01
                 A2990 =
2017-11-16 20:19 METAR CYBN 162019Z AUTO 30011G19KT 290V360 9SM BKN010 BKN038 BKN051 02/01 A2990
                 =
2017-11-16 20:16 METAR CYBN 162016Z AUTO 32010G20KT 290V360 9SM -RA SCT008 BKN038 BKN051 02/01
                 A2989 =
2017-11-16 20:00 METAR CYBN 162000Z AUTO 31011G18KT 290V350 9SM -RA OVC008 OVC029 OVC040 OVC045
                 02/01 A2988 RMK SLP128 =

Support USWX by starting your Amazon purchase here.